Terminal Aerodrome Forecast
Issued by NWS

Home | Current Version | Previous Version | Graphics & Text | Print | Product List | Glossary On
Versions: 1 2 3 4 5 6 7 8 9 10 11 12 13 14 15 16 17
019
FTUS43 KMPX 231137
TAFAXN
TAF
KAXN 231137Z 2312/2412 30007KT P6SM SKC
     FM231230 32008KT P6SM BKN025
      TEMPO 2313/2315 BKN018
     FM231800 34010KT P6SM BKN040
     FM232200 03006KT P6SM SCT090
     FM240400 10004KT P6SM SKC=

USA.gov is the U.S. government's official web portal to all federal, state and local government web resources and services.